Terminal Aerodrome Forecast
Issued by NWS

Home | Current Version | Previous Version | Text Only | Print | Product List | Glossary On
Versions: 1 2 3 4 5 6 7 8 9 10 11 12 13 14 15 16 17 18 19 20 21 22 23 24 25 26 27 28 29 30 31 32 33 34 35 36 37 38 39
000
FTUS43 KDLH 251146
TAFHIB
TAF
KHIB 251146Z 2512/2612 34005KT P6SM VCSH SCT010 OVC018
     FM251300 33010KT 6SM -SHRA SCT008 OVC012
     FM251500 33011G17KT 5SM -RA BKN008 OVC012
     FM251800 32011G16KT 6SM -SHRA OVC015
     FM252200 34012G19KT P6SM BKN025 BKN050
     FM260100 33004KT P6SM SCT025 BKN080=

USA.gov is the U.S. government's official web portal to all federal, state and local government web resources and services.